Maersk Bulan — 9V7693 — position and weather

sailwx.info

Track history (hours):
 
Tides and Currents Weather Stations Pressure Air Temp Water Temp Dewpoint Dewpoint Depression Visibility Wind Speed Wind Dir Waves Ship Positions

Maersk Bulan

Last reported at 2015-Jun-06 12:19 UTC. Time now 2015-Jul-02 00:49 UTC.
Position N 34°35' W 024°30'.
Warning: this ship's position is 25 days out of date.

Length 223 m; draft 9.3 m.

Type: Ship (hazmat cat A). MMSI: 563455000.

Date/timePositionNaut miles runAvg speedWind from/ knotsBaromVisibWave heightAir tempDewpointWater temp
2015-Jun-06 12:19N 34°35' W 024°30'810.9
2015-Jun-06 11:33N 34°37' W 024°20'3711.9
2015-Jun-06 08:25N 34°43' W 023°36'1111.3
2015-Jun-06 07:24N 34°45' W 023°22'1510.9
2015-Jun-06 06:03N 34°48' W 023°04'2211.1
2015-Jun-06 04:07N 34°51' W 022°38'610.7
2015-Jun-06 03:34N 34°52' W 022°31'5011.2
2015-Jun-05 23:05N 35°00' W 021°31'611.1
2015-Jun-05 22:33N 35°01' W 021°24'1511.2
2015-Jun-05 21:12N 35°03' W 021°05'5511.4
2015-Jun-05 16:24N 35°12' W 019°59'15510.4
2015-Jun-05 01:28N 35°30' W 016°51'5811.3
2015-Jun-04 20:21N 35°37' W 015°40'11111.1
2015-Jun-04 10:18N 35°46' W 013°23'2111.0
2015-Jun-04 08:22N 35°46' W 012°57'1313.1
2015-Jun-04 07:22N 35°47' W 012°41'911.1
2015-Jun-04 06:33N 35°48' W 012°30'1111.2
2015-Jun-04 05:34N 35°49' W 012°16'2511.3
2015-Jun-04 03:23N 35°50' W 011°46'911.1
2015-Jun-04 02:33N 35°51' W 011°35'1211.0
2015-Jun-04 01:26N 35°51' W 011°19'1011.0
2015-Jun-04 00:33N 35°52' W 011°08'1210.9
2015-Jun-03 23:27N 35°52' W 010°53'1011.0
2015-Jun-03 22:33N 35°53' W 010°41'1111.0
2015-Jun-03 21:33N 35°53' W 010°27'1110.9
2015-Jun-03 20:33N 35°53' W 010°14'1110.9
2015-Jun-03 19:33N 35°54' W 010°00'1110.9
2015-Jun-03 18:33N 35°54' W 009°47'1110.9
2015-Jun-03 17:33N 35°55' W 009°33'1111.1
2015-Jun-03 16:33N 35°55' W 009°20'189 5.7
2015-Jun-02 07:18N 36°08' W 005°26'0 0.0
2015-Jun-02 06:12N 36°08' W 005°26'0 0.0
2015-Jun-02 05:15N 36°08' W 005°26'0 0.0
2015-Jun-02 04:27N 36°08' W 005°26'0 0.0
2015-Jun-02 03:33N 36°08' W 005°26'0 0.0
2015-Jun-02 02:27N 36°08' W 005°26'0 0.0
2015-Jun-02 00:27N 36°09' W 005°26'0 0.0
2015-Jun-01 23:28N 36°08' W 005°26'5 4.8
2015-Jun-01 22:32N 36°06' W 005°22'6 6.4
2015-Jun-01 21:34N 36°05' W 005°14'12713.7
2015-Jun-01 12:17N 36°24' W 002°39'1014.1
2015-Jun-01 11:33N 36°25' W 002°26'1514.8
2015-Jun-01 10:33N 36°27' W 002°08'1514.6
2015-Jun-01 09:33N 36°29' W 001°50'1414.1
2015-Jun-01 08:33N 36°32' W 001°33'1615.8
2015-Jun-01 07:33N 36°34' W 001°13'1414.4
2015-Jun-01 06:33N 36°36' W 000°56'1414.2
2015-Jun-01 05:33N 36°39' W 000°38'4314.3
2015-Jun-01 02:33N 36°46' E 000°15'1514.6
2015-Jun-01 01:33N 36°48' E 000°33'1514.9
2015-Jun-01 00:32N 36°50' E 000°52'1515.1
2015-May-31 23:33N 36°52' E 001°10'1514.9
2015-May-31 22:33N 36°55' E 001°28'1515.1
2015-May-31 21:34N 36°57' E 001°47'1515.4
2015-May-31 20:33N 36°60' E 002°06'1515.2
2015-May-31 19:33N 37°03' E 002°25'1515.2
2015-May-31 18:33N 37°05' E 002°43'1414.5
2015-May-31 17:33N 37°07' E 003°01'1514.8
2015-May-31 16:33N 37°08' E 003°20'1514.9
2015-May-31 15:33N 37°10' E 003°38'1515.1
2015-May-31 14:33N 37°13' E 003°57'1514.9
2015-May-31 13:33N 37°16' E 004°15'1514.7
2015-May-31 12:34N 37°18' E 004°33'1714.9
2015-May-31 11:27N 37°21' E 004°54'20715.7
2015-May-30 22:13N 37°43' E 009°14'1015.1
2015-May-30 21:33N 37°42' E 009°27'1514.9
2015-May-30 20:33N 37°40' E 009°45'3015.1
2015-May-30 18:33N 37°38' E 010°23'4615.2
2015-May-30 15:33N 37°24' E 011°18'1615.7
2015-May-30 14:34N 37°16' E 011°35'1515.2
2015-May-30 13:33N 37°09' E 011°52'1615.7
2015-May-30 12:33N 37°00' E 012°08'1515.3
2015-May-30 11:33N 36°55' E 012°26'1515.0
2015-May-30 10:33N 36°51' E 012°44'1515.0
2015-May-30 09:33N 36°47' E 013°02'1514.9
2015-May-30 08:33N 36°43' E 013°20'1615.5
2015-May-30 07:32N 36°38' E 013°39'1616.5
2015-May-30 06:34N 36°34' E 013°58'1515.4
2015-May-30 05:33N 36°30' E 014°17'1615.6
2015-May-30 04:33N 36°25' E 014°35'1615.7
2015-May-30 03:33N 36°21' E 014°54'1515.4
2015-May-30 02:33N 36°22' E 015°13'1816.0
2015-May-30 01:26N 36°20' E 015°36'1516.3
2015-May-30 00:32N 36°20' E 015°54'1616.2
2015-May-29 23:33N 36°20' E 016°14'  
Track history (hours):
 
Tides and Currents Weather Stations Pressure Air Temp Water Temp Dewpoint Dewpoint Depression Visibility Wind Speed Wind Dir Waves Ship Positions

Maersk Bulan

Last reported at 2015-Jun-06 12:19 UTC. Time now 2015-Jul-02 00:50 UTC.
Position N 34°35' W 024°30'.
Warning: this ship's position is 25 days out of date.

Length 223 m; draft 9.3 m.

Type: Ship (hazmat cat A). MMSI: 563455000.

Date/timePositionNaut miles runAvg speedWind from/ knotsBaromVisibWave heightAir tempDewpointWater temp
2015-Jun-06 12:19N 34°35' W 024°30'810.9
2015-Jun-06 11:33N 34°37' W 024°20'3711.9
2015-Jun-06 08:25N 34°43' W 023°36'1111.3
2015-Jun-06 07:24N 34°45' W 023°22'1510.9
2015-Jun-06 06:03N 34°48' W 023°04'2211.1
2015-Jun-06 04:07N 34°51' W 022°38'610.7
2015-Jun-06 03:34N 34°52' W 022°31'5011.2
2015-Jun-05 23:05N 35°00' W 021°31'611.1
2015-Jun-05 22:33N 35°01' W 021°24'1511.2
2015-Jun-05 21:12N 35°03' W 021°05'5511.4
2015-Jun-05 16:24N 35°12' W 019°59'15510.4
2015-Jun-05 01:28N 35°30' W 016°51'5811.3
2015-Jun-04 20:21N 35°37' W 015°40'11111.1
2015-Jun-04 10:18N 35°46' W 013°23'2111.0
2015-Jun-04 08:22N 35°46' W 012°57'1313.1
2015-Jun-04 07:22N 35°47' W 012°41'911.1
2015-Jun-04 06:33N 35°48' W 012°30'1111.2
2015-Jun-04 05:34N 35°49' W 012°16'2511.3
2015-Jun-04 03:23N 35°50' W 011°46'911.1
2015-Jun-04 02:33N 35°51' W 011°35'1211.0
2015-Jun-04 01:26N 35°51' W 011°19'1011.0
2015-Jun-04 00:33N 35°52' W 011°08'1210.9
2015-Jun-03 23:27N 35°52' W 010°53'1011.0
2015-Jun-03 22:33N 35°53' W 010°41'1111.0
2015-Jun-03 21:33N 35°53' W 010°27'1110.9
2015-Jun-03 20:33N 35°53' W 010°14'1110.9
2015-Jun-03 19:33N 35°54' W 010°00'1110.9
2015-Jun-03 18:33N 35°54' W 009°47'1110.9
2015-Jun-03 17:33N 35°55' W 009°33'1111.1
2015-Jun-03 16:33N 35°55' W 009°20'189 5.7
2015-Jun-02 07:18N 36°08' W 005°26'0 0.0
2015-Jun-02 06:12N 36°08' W 005°26'0 0.0
2015-Jun-02 05:15N 36°08' W 005°26'0 0.0
2015-Jun-02 04:27N 36°08' W 005°26'0 0.0
2015-Jun-02 03:33N 36°08' W 005°26'0 0.0
2015-Jun-02 02:27N 36°08' W 005°26'0 0.0
2015-Jun-02 00:27N 36°09' W 005°26'0 0.0
2015-Jun-01 23:28N 36°08' W 005°26'5 4.8
2015-Jun-01 22:32N 36°06' W 005°22'6 6.4
2015-Jun-01 21:34N 36°05' W 005°14'12713.7
2015-Jun-01 12:17N 36°24' W 002°39'1014.1
2015-Jun-01 11:33N 36°25' W 002°26'1514.8
2015-Jun-01 10:33N 36°27' W 002°08'1514.6
2015-Jun-01 09:33N 36°29' W 001°50'1414.1
2015-Jun-01 08:33N 36°32' W 001°33'1615.8
2015-Jun-01 07:33N 36°34' W 001°13'1414.4
2015-Jun-01 06:33N 36°36' W 000°56'1414.2
2015-Jun-01 05:33N 36°39' W 000°38'4314.3
2015-Jun-01 02:33N 36°46' E 000°15'1514.6
2015-Jun-01 01:33N 36°48' E 000°33'1514.9
2015-Jun-01 00:32N 36°50' E 000°52'1515.1
2015-May-31 23:33N 36°52' E 001°10'1514.9
2015-May-31 22:33N 36°55' E 001°28'1515.1
2015-May-31 21:34N 36°57' E 001°47'1515.4
2015-May-31 20:33N 36°60' E 002°06'1515.2
2015-May-31 19:33N 37°03' E 002°25'1515.2
2015-May-31 18:33N 37°05' E 002°43'1414.5
2015-May-31 17:33N 37°07' E 003°01'1514.8
2015-May-31 16:33N 37°08' E 003°20'1514.9
2015-May-31 15:33N 37°10' E 003°38'1515.1
2015-May-31 14:33N 37°13' E 003°57'1514.9
2015-May-31 13:33N 37°16' E 004°15'1514.7
2015-May-31 12:34N 37°18' E 004°33'1714.9
2015-May-31 11:27N 37°21' E 004°54'20715.7
2015-May-30 22:13N 37°43' E 009°14'1015.1
2015-May-30 21:33N 37°42' E 009°27'1514.9
2015-May-30 20:33N 37°40' E 009°45'3015.1
2015-May-30 18:33N 37°38' E 010°23'4615.2
2015-May-30 15:33N 37°24' E 011°18'1615.7
2015-May-30 14:34N 37°16' E 011°35'1515.2
2015-May-30 13:33N 37°09' E 011°52'1615.7
2015-May-30 12:33N 37°00' E 012°08'1515.3
2015-May-30 11:33N 36°55' E 012°26'1515.0
2015-May-30 10:33N 36°51' E 012°44'1515.0
2015-May-30 09:33N 36°47' E 013°02'1514.9
2015-May-30 08:33N 36°43' E 013°20'1615.5
2015-May-30 07:32N 36°38' E 013°39'1616.5
2015-May-30 06:34N 36°34' E 013°58'1515.4
2015-May-30 05:33N 36°30' E 014°17'1615.6
2015-May-30 04:33N 36°25' E 014°35'1615.7
2015-May-30 03:33N 36°21' E 014°54'1515.4
2015-May-30 02:33N 36°22' E 015°13'1816.0
2015-May-30 01:26N 36°20' E 015°36'1516.3
2015-May-30 00:32N 36°20' E 015°54'1616.2
2015-May-29 23:33N 36°20' E 016°14'  

Dump ship's entire track history